Time;durP1;ratioP1;P1;durP2;ratioP2;P2;SDS_P1;SDS_P2;PMS_P1;PMS_P2;Temp;Humidity;BMP_temperature;BMP_pressure;BME280_temperature;BME280_humidity;BME280_pressure;Samples;Min_cycle;Max_cycle;Signal;HPM_P1;HPM_P2
2022/03/02 00:02:17;;;;;;;15.05;6.88;;;4.70;98.40;;;4.94;nan;101621.53;5067736;28;20203;-68
2022/03/02 00:04:44;;;;;;;10.07;5.95;;;4.70;98.10;;;4.88;nan;101612.22;5069491;28;20258;-68
2022/03/02 00:07:11;;;;;;;14.18;6.90;;;4.70;98.30;;;4.83;nan;101610.69;5070441;28;20583;-72
2022/03/02 00:09:39;;;;;;;12.18;7.57;;;4.60;98.40;;;4.78;nan;101610.00;5047977;28;20205;-68
2022/03/02 00:12:07;;;;;;;14.25;7.60;;;4.60;98.60;;;4.78;nan;101617.75;5034629;28;20193;-71
2022/03/02 00:14:34;;;;;;;12.15;6.93;;;4.60;99.00;;;4.75;nan;101620.44;5050933;28;20229;-70
2022/03/02 00:17:01;;;;;;;17.95;8.35;;;4.50;99.10;;;4.67;nan;101624.13;5032444;28;20193;-66
2022/03/02 00:19:28;;;;;;;12.32;7.22;;;4.50;99.30;;;4.58;nan;101621.81;5050445;28;20192;-70
2022/03/02 00:21:55;;;;;;;16.50;8.07;;;4.40;99.80;;;4.61;nan;101619.16;5052910;28;20197;-67
2022/03/02 00:24:22;;;;;;;15.68;7.72;;;4.40;99.90;;;4.58;nan;101608.03;5054517;28;20225;-68
2022/03/02 00:26:49;;;;;;;17.55;10.18;;;4.40;99.90;;;4.45;nan;101604.16;5071043;28;20223;-69
2022/03/02 00:29:16;;;;;;;15.70;8.05;;;4.20;99.90;;;4.47;nan;101602.38;5050602;28;20315;-71
2022/03/02 00:31:43;;;;;;;14.98;8.23;;;4.30;99.90;;;4.45;nan;101599.00;5058268;28;20206;-68
2022/03/02 00:34:10;;;;;;;13.45;7.70;;;4.20;99.90;;;4.34;nan;101591.59;5053094;28;20237;-70
2022/03/02 00:36:37;;;;;;;13.20;6.15;;;4.10;99.90;;;4.27;nan;101599.56;5069071;28;20205;-71
2022/03/02 00:39:05;;;;;;;15.82;6.97;;;4.10;99.90;;;4.24;nan;101590.16;5064928;28;20201;-72
2022/03/02 00:41:33;;;;;;;14.20;7.65;;;4.00;99.90;;;4.23;nan;101598.81;5049094;28;20418;-69
2022/03/02 00:44:01;;;;;;;14.43;6.30;;;4.00;99.90;;;4.23;nan;101588.50;5051651;28;20232;-69
2022/03/02 00:46:29;;;;;;;13.75;7.53;;;4.00;99.90;;;4.17;nan;101590.41;5050233;28;20208;-72
2022/03/02 00:48:59;;;;;;;14.32;7.13;;;3.90;99.90;;;4.05;nan;101594.19;5052494;28;20192;-69
2022/03/02 00:51:27;;;;;;;14.27;7.10;;;3.80;99.90;;;4.04;nan;101582.19;5058880;28;20198;-68
2022/03/02 00:53:55;;;;;;;8.90;6.80;;;3.80;99.90;;;4.05;nan;101583.88;5049466;28;20210;-70
2022/03/02 00:56:23;;;;;;;14.48;8.07;;;3.80;99.90;;;4.09;nan;101585.47;5049299;28;20216;-68
2022/03/02 00:58:50;;;;;;;13.90;7.80;;;3.80;99.90;;;4.10;nan;101583.72;5051396;28;20209;-69
2022/03/02 01:01:17;;;;;;;15.02;8.15;;;3.90;99.90;;;4.15;nan;101587.03;5050661;28;20205;-69
2022/03/02 01:03:44;;;;;;;11.93;7.35;;;3.90;99.90;;;4.14;nan;101578.44;5050341;28;20205;-66
2022/03/02 01:06:12;;;;;;;11.52;7.35;;;3.90;99.90;;;4.06;nan;101580.41;5068174;28;20218;-68
2022/03/02 01:08:39;;;;;;;10.68;7.45;;;3.80;99.90;;;4.06;nan;101575.25;5061903;28;20197;-70
2022/03/02 01:11:06;;;;;;;14.40;7.00;;;3.80;99.90;;;4.02;nan;101567.63;5067380;28;20302;-69
2022/03/02 01:13:33;;;;;;;10.65;6.38;;;3.80;99.90;;;4.00;nan;101561.66;5068791;28;20273;-70
2022/03/02 01:16:01;;;;;;;9.63;5.88;;;3.80;99.90;;;3.98;nan;101556.56;5033941;28;20225;-70
2022/03/02 01:18:28;;;;;;;10.25;6.20;;;3.70;99.90;;;4.02;nan;101555.56;5053749;28;20681;-70
2022/03/02 01:20:55;;;;;;;12.48;6.90;;;3.80;99.90;;;4.02;nan;101558.16;5035101;28;20668;-70
2022/03/02 01:23:22;;;;;;;12.50;7.93;;;3.80;99.90;;;3.99;nan;101559.97;5053384;28;20204;-68
2022/03/02 01:25:49;;;;;;;14.60;8.43;;;3.80;99.90;;;3.97;nan;101560.00;5059750;22;20249;-66
2022/03/02 01:28:17;;;;;;;17.00;8.18;;;3.80;99.90;;;4.02;nan;101563.31;5012116;28;20213;-66
2022/03/02 01:30:44;;;;;;;14.80;8.50;;;3.80;99.90;;;3.97;nan;101556.56;5027365;28;20622;-66
2022/03/02 01:33:11;;;;;;;10.63;6.45;;;3.80;99.90;;;3.97;nan;101562.59;4991337;28;20222;-67
2022/03/02 01:35:38;;;;;;;9.13;6.15;;;3.80;99.90;;;3.93;nan;101563.59;5012041;28;20253;-67
2022/03/02 01:38:05;;;;;;;8.82;5.63;;;3.70;99.90;;;3.90;nan;101559.34;5020341;28;20610;-67
2022/03/02 01:40:33;;;;;;;10.65;5.80;;;3.70;99.90;;;3.84;nan;101554.38;5009470;28;20206;-66
2022/03/02 01:43:00;;;;;;;10.93;6.57;;;3.60;99.90;;;3.91;nan;101555.03;5009354;28;20210;-66
2022/03/02 01:45:27;;;;;;;10.23;5.57;;;3.70;99.90;;;3.87;nan;101553.44;4993014;28;20699;-66
2022/03/02 01:47:58;;;;;;;10.50;6.03;;;3.70;99.90;;;3.79;nan;101540.75;5021116;28;20206;-66
2022/03/02 01:50:25;;;;;;;11.38;7.13;;;3.60;99.90;;;3.76;nan;101540.84;4976163;28;20206;-66
2022/03/02 01:52:52;;;;;;;12.70;7.47;;;3.60;99.90;;;3.69;nan;101534.16;5007260;28;20589;-66
2022/03/02 01:55:19;;;;;;;14.02;7.85;;;3.50;99.90;;;3.59;nan;101535.34;5008322;28;20219;-66
2022/03/02 01:57:46;;;;;;;14.10;7.45;;;3.40;99.90;;;3.59;nan;101529.31;4991008;28;20206;-66
2022/03/02 02:00:19;;;;;;;13.25;5.80;;;3.40;99.90;;;3.52;nan;101526.06;5000194;28;20710;-66
2022/03/02 02:02:48;;;;;;;15.35;7.78;;;3.30;99.90;;;3.56;nan;101529.41;4990281;28;20208;-66
2022/03/02 02:05:16;;;;;;;16.10;8.05;;;3.30;99.90;;;3.44;nan;101524.59;5009856;28;20623;-66
2022/03/02 02:07:44;;;;;;;9.82;6.22;;;3.30;99.90;;;3.51;nan;101519.25;4967256;28;20214;-67
2022/03/02 02:10:12;;;;;;;12.90;7.05;;;3.30;99.90;;;3.49;nan;101522.75;4988157;28;20571;-66
2022/03/02 02:12:39;;;;;;;13.52;8.40;;;3.30;99.90;;;3.35;nan;101517.13;4986656;28;20579;-66
2022/03/02 02:15:09;;;;;;;16.27;7.70;;;3.20;99.90;;;3.39;nan;101511.84;5012493;28;20230;-66
2022/03/02 02:17:37;;;;;;;14.88;7.07;;;3.20;99.90;;;3.27;nan;101511.34;4996544;28;20256;-66
2022/03/02 02:20:06;;;;;;;11.43;7.60;;;3.10;99.90;;;3.27;nan;101503.59;4995309;28;20567;-66
2022/03/02 02:22:46;;;;;;;11.00;7.13;;;3.00;99.90;;;3.24;nan;101508.84;5012320;28;20276;-66
2022/03/02 02:25:14;;;;;;;12.63;7.20;;;3.00;99.90;;;3.23;nan;101512.31;4996753;28;20237;-66
2022/03/02 02:27:48;;;;;;;10.50;6.82;;;3.00;99.90;;;3.29;nan;101500.09;4995801;28;20206;-66
2022/03/02 02:30:16;;;;;;;11.95;7.85;;;3.00;99.90;;;3.22;nan;101493.41;4993017;28;20199;-66
2022/03/02 02:32:43;;;;;;;12.35;7.50;;;3.00;99.90;;;3.32;nan;101494.00;4994232;28;20616;-66
2022/03/02 02:35:11;;;;;;;12.90;7.65;;;3.10;99.90;;;3.32;nan;101491.44;4979235;28;20300;-66
2022/03/02 02:37:39;;;;;;;11.18;6.88;;;3.10;99.90;;;3.26;nan;101483.88;5009201;28;20229;-66
2022/03/02 02:40:13;;;;;;;13.10;6.97;;;3.10;99.90;;;3.32;nan;101491.44;4983410;28;20544;-66
2022/03/02 02:42:44;;;;;;;9.57;6.88;;;3.10;99.90;;;3.12;nan;101489.41;5011142;28;20210;-66
2022/03/02 02:45:20;;;;;;;9.25;6.10;;;3.00;99.90;;;3.22;nan;101485.66;5011050;28;20222;-66
2022/03/02 02:47:55;;;;;;;9.80;6.20;;;3.10;99.90;;;3.25;nan;101493.34;4995060;28;20208;-66
2022/03/02 02:50:29;;;;;;;11.82;7.00;;;3.00;99.90;;;3.22;nan;101489.97;4995758;28;20217;-66
2022/03/02 02:53:00;;;;;;;11.60;7.28;;;3.00;99.90;;;3.14;nan;101485.91;5011242;28;20222;-66
2022/03/02 02:55:28;;;;;;;12.15;7.53;;;2.90;99.90;;;2.99;nan;101476.00;4995219;28;20230;-66
2022/03/02 02:57:57;;;;;;;10.20;7.00;;;2.90;99.90;;;3.02;nan;101485.38;4995276;28;20576;-66
2022/03/02 03:00:28;;;;;;;16.15;4.78;;;2.90;99.90;;;2.99;nan;101491.47;4980489;28;20218;-66
2022/03/02 03:02:58;;;;;;;9.13;5.45;;;2.80;99.90;;;3.00;nan;101495.72;4994751;28;20284;-66
2022/03/02 03:05:29;;;;;;;12.05;7.38;;;2.80;99.90;;;2.94;nan;101495.03;4994941;28;20257;-66
2022/03/02 03:07:59;;;;;;;11.32;7.10;;;2.80;99.90;;;2.82;nan;101496.22;4993950;28;20199;-66
2022/03/02 03:10:27;;;;;;;11.88;7.95;;;2.70;99.90;;;2.80;nan;101497.16;5011761;28;20575;-66
2022/03/02 03:12:54;;;;;;;13.40;8.32;;;2.60;99.90;;;2.72;nan;101487.06;4994019;28;20198;-66
2022/03/02 03:15:22;;;;;;;14.10;7.80;;;2.60;99.90;;;2.86;nan;101481.53;4994318;28;20226;-66
2022/03/02 03:17:51;;;;;;;9.82;6.15;;;2.70;99.90;;;2.88;nan;101474.59;5009979;28;20202;-66
2022/03/02 03:20:23;;;;;;;11.55;6.80;;;2.70;99.90;;;2.90;nan;101468.50;4995109;28;20320;-66
2022/03/02 03:22:50;;;;;;;13.35;8.00;;;2.80;99.90;;;3.00;nan;101464.78;5008006;28;20211;-66
2022/03/02 03:25:17;;;;;;;12.40;7.80;;;2.80;99.90;;;3.05;nan;101465.50;4978183;28;20253;-66
2022/03/02 03:27:45;;;;;;;8.73;5.97;;;2.90;99.90;;;3.11;nan;101465.34;5007756;28;20225;-66
2022/03/02 03:30:15;;;;;;;10.77;6.18;;;3.00;99.90;;;3.12;nan;101464.47;4996804;28;20203;-66
2022/03/02 03:32:43;;;;;;;8.75;5.30;;;3.00;99.90;;;3.09;nan;101458.53;4990694;28;20207;-66
2022/03/02 03:35:12;;;;;;;8.38;5.10;;;2.90;99.90;;;3.03;nan;101459.56;5011869;28;20820;-66
2022/03/02 03:37:41;;;;;;;9.80;5.90;;;2.90;99.90;;;3.04;nan;101461.25;5013074;28;20214;-66
2022/03/02 03:40:10;;;;;;;8.13;5.45;;;2.90;99.90;;;2.97;nan;101459.72;4978344;28;20203;-66
2022/03/02 03:42:37;;;;;;;9.80;5.90;;;2.80;99.90;;;2.92;nan;101461.59;5009668;28;20202;-66
2022/03/02 03:45:05;;;;;;;8.80;5.40;;;2.80;99.90;;;2.98;nan;101471.72;5010213;28;20234;-66
2022/03/02 03:47:32;;;;;;;9.70;6.20;;;2.80;99.90;;;3.03;nan;101461.28;4994180;28;20679;-66
2022/03/02 03:50:00;;;;;;;11.25;6.50;;;2.80;99.90;;;2.93;nan;101463.28;4976767;28;20214;-66
2022/03/02 03:52:27;;;;;;;10.00;6.68;;;2.80;99.90;;;2.94;nan;101464.97;5023665;28;20225;-66
2022/03/02 03:54:54;;;;;;;13.00;7.65;;;2.80;99.90;;;2.94;nan;101464.09;5010135;28;20222;-66
2022/03/02 03:57:21;;;;;;;12.10;6.70;;;2.80;99.90;;;3.01;nan;101461.34;5010437;28;20199;-66
2022/03/02 03:59:48;;;;;;;10.32;5.05;;;2.90;99.90;;;2.91;nan;101448.75;4990302;28;20211;-66
2022/03/02 04:02:15;;;;;;;13.05;6.28;;;2.80;99.90;;;2.88;nan;101448.81;4983452;28;20595;-66
2022/03/02 04:04:42;;;;;;;8.05;5.60;;;2.70;99.90;;;2.70;nan;101447.59;4993663;28;20229;-66
2022/03/02 04:07:09;;;;;;;10.68;6.30;;;2.60;99.90;;;2.61;nan;101437.53;4993329;28;20632;-66
2022/03/02 04:09:36;;;;;;;11.68;6.32;;;2.50;99.90;;;2.54;nan;101438.56;5010555;28;20211;-65
2022/03/02 04:12:04;;;;;;;6.82;5.28;;;2.40;99.90;;;2.59;nan;101436.72;4976940;28;20203;-66
2022/03/02 04:14:31;;;;;;;12.90;5.95;;;2.40;99.90;;;2.54;nan;101430.84;5010716;28;20226;-66
2022/03/02 04:16:58;;;;;;;12.43;5.85;;;2.40;99.90;;;2.56;nan;101429.06;5011029;28;20206;-66
2022/03/02 04:19:25;;;;;;;10.30;5.65;;;2.40;99.90;;;2.44;nan;101429.41;5011081;28;20199;-66
2022/03/02 04:21:52;;;;;;;11.75;6.03;;;2.30;99.90;;;2.51;nan;101424.94;4993689;28;20210;-65
2022/03/02 04:24:19;;;;;;;11.73;6.45;;;2.30;99.90;;;2.48;nan;101423.28;5010484;28;20207;-65
2022/03/02 04:26:46;;;;;;;13.40;6.47;;;2.30;99.90;;;2.45;nan;101428.50;5010839;28;20206;-65
2022/03/02 04:29:14;;;;;;;8.32;5.70;;;2.30;99.90;;;2.44;nan;101424.25;5008132;28;20208;-65
2022/03/02 04:31:41;;;;;;;10.48;5.30;;;2.30;99.90;;;2.39;nan;101418.38;5006160;28;20237;-66
2022/03/02 04:34:12;;;;;;;9.82;5.50;;;2.20;99.90;;;2.38;nan;101408.97;5005150;28;20260;-65
2022/03/02 04:36:39;;;;;;;12.00;6.90;;;2.20;99.90;;;2.38;nan;101408.97;5010337;28;20773;-65
2022/03/02 04:39:06;;;;;;;12.75;5.45;;;2.20;99.90;;;2.43;nan;101408.84;5011217;28;20332;-65
2022/03/02 04:41:33;;;;;;;9.82;6.10;;;2.20;99.90;;;2.41;nan;101398.56;4977462;28;20357;-65
2022/03/02 04:44:00;;;;;;;10.70;6.32;;;2.20;99.90;;;2.43;nan;101396.78;4992179;28;20203;-65
2022/03/02 04:46:27;;;;;;;13.85;6.55;;;2.30;99.90;;;2.45;nan;101397.59;5011920;28;20240;-65
2022/03/02 04:48:55;;;;;;;9.90;6.15;;;2.30;99.90;;;2.36;nan;101392.72;4993303;28;20206;-67
2022/03/02 04:51:21;;;;;;;12.45;7.40;;;2.20;99.90;;;2.34;nan;101390.16;5010033;28;20206;-65
2022/03/02 04:53:50;;;;;;;12.38;7.15;;;2.20;99.90;;;2.32;nan;101391.91;4992523;28;20226;-66
2022/03/02 04:56:17;;;;;;;10.90;6.05;;;2.20;99.90;;;2.41;nan;101385.69;4992303;28;20227;-66
2022/03/02 04:58:44;;;;;;;9.52;6.00;;;2.20;99.90;;;2.34;nan;101399.63;5010099;28;20255;-66
2022/03/02 05:01:12;;;;;;;12.48;6.88;;;2.20;99.90;;;2.42;nan;101399.41;4993015;28;20211;-66
2022/03/02 05:03:39;;;;;;;13.38;6.05;;;2.20;99.90;;;2.49;nan;101406.09;5011289;28;20206;-66
2022/03/02 05:06:06;;;;;;;13.27;8.65;;;2.30;99.90;;;2.38;nan;101407.22;5010636;28;24502;-66
2022/03/02 05:08:33;;;;;;;12.27;7.75;;;2.20;99.90;;;2.43;nan;101401.94;5008336;28;21049;-66
2022/03/02 05:11:00;;;;;;;11.25;7.22;;;2.30;99.90;;;2.44;nan;101405.38;4996117;28;20198;-66
2022/03/02 05:13:27;;;;;;;11.35;7.68;;;2.30;99.90;;;2.40;nan;101403.75;5009950;28;20213;-66
2022/03/02 05:15:54;;;;;;;11.27;6.03;;;2.30;99.90;;;2.43;nan;101396.78;5009103;28;20219;-66
2022/03/02 05:18:21;;;;;;;9.10;6.03;;;2.30;99.90;;;2.47;nan;101395.81;4993606;28;20435;-66
2022/03/02 05:20:48;;;;;;;10.32;6.40;;;2.30;99.90;;;2.51;nan;101394.88;4995161;28;20207;-66
2022/03/02 05:23:15;;;;;;;9.57;5.90;;;2.40;99.90;;;2.48;nan;101394.09;4988281;28;20203;-66
2022/03/02 05:25:42;;;;;;;12.15;6.20;;;2.30;99.90;;;2.52;nan;101399.13;5009050;28;20234;-65
2022/03/02 05:28:09;;;;;;;9.35;6.13;;;2.40;99.90;;;2.55;nan;101401.63;4992970;28;20202;-65
2022/03/02 05:30:36;;;;;;;9.32;6.25;;;2.40;99.90;;;2.58;nan;101392.97;5010214;28;20579;-66
2022/03/02 05:33:03;;;;;;;9.45;6.10;;;2.50;99.90;;;2.56;nan;101400.72;4992137;28;20194;-66
2022/03/02 05:35:30;;;;;;;11.70;6.75;;;2.50;99.90;;;2.60;nan;101404.91;5013610;28;20234;-65
2022/03/02 05:37:57;;;;;;;9.27;5.40;;;2.50;99.90;;;2.62;nan;101399.75;5012921;28;20274;-65
2022/03/02 05:40:24;;;;;;;10.52;5.60;;;2.50;99.90;;;2.70;nan;101411.53;5004943;28;20222;-65
2022/03/02 05:42:53;;;;;;;13.60;7.10;;;2.60;99.90;;;2.66;nan;101401.34;5009693;28;20218;-65
2022/03/02 05:45:21;;;;;;;8.07;5.60;;;2.60;99.90;;;2.77;nan;101402.72;5010368;28;20235;-65
2022/03/02 05:47:48;;;;;;;10.63;6.60;;;2.70;99.90;;;2.81;nan;101412.06;4993677;28;20207;-66
2022/03/02 05:50:15;;;;;;;10.48;6.18;;;2.70;99.90;;;2.75;nan;101406.22;4993829;28;20211;-65
2022/03/02 05:52:42;;;;;;;8.95;5.63;;;2.70;99.90;;;2.72;nan;101407.19;5013651;28;20698;-65
2022/03/02 05:55:09;;;;;;;9.73;6.63;;;2.70;99.90;;;2.63;nan;101401.41;5014010;28;20898;-66
2022/03/02 05:57:36;;;;;;;10.73;6.40;;;2.60;99.90;;;2.51;nan;101402.59;5014110;28;20202;-65
2022/03/02 06:00:06;;;;;;;9.85;6.15;;;2.50;99.90;;;2.53;nan;101399.97;5013293;28;20207;-66
2022/03/02 06:02:33;;;;;;;10.10;6.38;;;2.50;99.90;;;2.47;nan;101405.31;5003882;28;20209;-65
2022/03/02 06:05:02;;;;;;;14.23;6.90;;;2.40;99.90;;;2.42;nan;101412.28;5002324;28;20227;-65
2022/03/02 06:07:29;;;;;;;12.30;7.28;;;2.30;99.90;;;2.51;nan;101410.34;5013781;28;20232;-65
2022/03/02 06:09:56;;;;;;;10.57;5.68;;;2.40;99.90;;;2.47;nan;101413.84;5012827;28;20275;-65
2022/03/02 06:12:23;;;;;;;9.30;6.70;;;2.40;99.90;;;2.49;nan;101414.69;5005911;28;20206;-65
2022/03/02 06:14:51;;;;;;;10.02;6.72;;;2.40;99.90;;;2.43;nan;101409.66;5013004;28;20238;-66
2022/03/02 06:17:18;;;;;;;11.70;6.88;;;2.40;99.90;;;2.49;nan;101424.13;5013049;28;20277;-66
2022/03/02 06:19:46;;;;;;;12.02;7.20;;;2.40;99.90;;;2.47;nan;101425.91;5013628;28;20574;-65
2022/03/02 06:22:17;;;;;;;13.20;7.53;;;2.40;99.90;;;2.48;nan;101427.59;5012345;28;20207;-66
2022/03/02 06:24:44;;;;;;;15.43;6.55;;;2.40;99.90;;;2.53;nan;101428.31;4995938;28;20246;-65
2022/03/02 06:27:11;;;;;;;12.32;7.10;;;2.40;99.90;;;2.47;nan;101434.47;5013029;28;20206;-65
2022/03/02 06:29:39;;;;;;;10.30;7.80;;;2.40;99.90;;;2.47;nan;101437.03;5013274;28;20294;-66
2022/03/02 06:32:06;;;;;;;13.52;7.88;;;2.40;99.90;;;2.42;nan;101438.91;5009562;28;20214;-66
2022/03/02 06:34:34;;;;;;;12.07;7.53;;;2.40;99.90;;;2.48;nan;101443.88;4992013;28;20239;-66
2022/03/02 06:37:01;;;;;;;12.10;7.78;;;2.40;99.90;;;2.53;nan;101442.06;5007682;28;20208;-66
2022/03/02 06:39:28;;;;;;;10.43;6.93;;;2.50;99.90;;;2.71;nan;101435.53;4995023;28;20194;-66
2022/03/02 06:42:23;;;;;;;11.55;7.00;;;2.60;99.90;;;2.67;nan;101429.63;4995871;28;20226;-66
2022/03/02 06:45:12;;;;;;;14.35;6.72;;;2.70;99.90;;;2.78;nan;101437.06;4995820;28;20231;-66
2022/03/02 06:47:52;;;;;;;10.35;6.38;;;2.70;99.90;;;2.84;nan;101419.72;4996677;28;20211;-66
2022/03/02 06:50:25;;;;;;;12.18;6.03;;;2.80;99.90;;;2.95;nan;101422.84;5013807;28;20670;-66
2022/03/02 06:52:55;;;;;;;15.52;7.32;;;2.90;99.90;;;3.07;nan;101429.38;4993760;28;20234;-66
2022/03/02 06:55:22;;;;;;;10.13;5.85;;;3.00;99.90;;;3.17;nan;101429.97;4991190;28;20231;-66
2022/03/02 06:57:56;;;;;;;10.35;6.00;;;3.10;99.90;;;3.24;nan;101428.91;4997351;28;20222;-66
2022/03/02 07:00:25;;;;;;;13.13;6.80;;;3.20;99.90;;;3.33;nan;101433.78;5003391;28;20267;-66
2022/03/02 07:03:11;;;;;;;11.07;5.93;;;3.20;99.90;;;3.39;nan;101418.97;5011971;28;20225;-67
2022/03/02 07:05:39;;;;;;;11.15;6.30;;;3.40;99.90;;;3.53;nan;101416.81;5017818;28;20255;-68
2022/03/02 07:08:08;;;;;;;12.05;6.82;;;3.50;99.90;;;3.62;nan;101419.09;5006127;28;20656;-66
2022/03/02 07:10:37;;;;;;;9.68;6.40;;;3.60;99.90;;;3.78;nan;101422.06;4989212;28;20211;-66
2022/03/02 07:13:06;;;;;;;11.25;6.80;;;3.80;99.90;;;3.89;nan;101422.56;5010742;28;20213;-66
2022/03/02 07:15:35;;;;;;;13.25;6.72;;;3.90;99.90;;;4.07;nan;101424.53;5011351;28;20341;-66
2022/03/02 07:18:04;;;;;;;14.55;7.28;;;4.10;99.90;;;4.19;nan;101426.75;5010469;28;20245;-66
2022/03/02 07:20:31;;;;;;;11.60;6.75;;;4.20;99.90;;;4.21;nan;101435.28;5005295;28;20581;-66
2022/03/02 07:23:02;;;;;;;14.77;7.80;;;4.20;99.90;;;4.30;nan;101431.56;4968625;28;20191;-66
2022/03/02 07:25:35;;;;;;;14.20;8.48;;;4.30;99.90;;;4.35;nan;101427.91;4977126;28;20926;-66
2022/03/02 07:28:03;;;;;;;12.40;7.53;;;4.40;99.90;;;4.27;nan;101417.00;4993493;28;20631;-66
2022/03/02 07:30:30;;;;;;;13.15;8.13;;;4.40;99.90;;;4.16;nan;101426.84;5006822;28;20667;-67
2022/03/02 07:33:03;;;;;;;8.93;6.65;;;4.40;99.90;;;4.17;nan;101425.09;4989391;28;20582;-66
2022/03/02 07:35:36;;;;;;;14.38;7.43;;;4.30;99.90;;;4.36;nan;101419.28;4992322;28;20241;-67
2022/03/02 07:38:06;;;;;;;10.13;6.03;;;4.40;99.90;;;4.45;nan;101426.69;4980872;28;20668;-67
2022/03/02 07:40:34;;;;;;;9.98;6.80;;;4.50;99.90;;;4.57;nan;101421.13;5005673;28;20667;-67
2022/03/02 07:43:02;;;;;;;12.05;7.82;;;4.60;99.90;;;4.49;nan;101428.25;4982421;28;20714;-67
2022/03/02 07:45:29;;;;;;;16.52;8.13;;;4.60;99.90;;;4.63;nan;101432.97;4992039;28;20658;-66
2022/03/02 07:47:56;;;;;;;14.40;9.18;;;4.70;99.90;;;4.71;nan;101425.78;4979899;28;24452;-66
2022/03/02 07:50:25;;;;;;;15.60;9.50;;;4.80;99.90;;;4.68;nan;101413.81;5001982;28;21400;-67
2022/03/02 07:52:52;;;;;;;11.93;7.85;;;4.80;99.90;;;4.76;nan;101413.56;5008071;28;20218;-66
2022/03/02 07:55:20;;;;;;;12.45;6.95;;;4.90;99.90;;;4.76;nan;101423.03;4996951;28;20256;-68
2022/03/02 07:57:55;;;;;;;15.38;7.10;;;4.80;99.90;;;4.85;nan;101409.78;5012462;28;20652;-68
2022/03/02 08:00:28;;;;;;;12.50;6.50;;;4.90;99.90;;;4.90;nan;101406.13;5013167;28;20610;-67
2022/03/02 08:02:59;;;;;;;11.25;6.88;;;5.00;99.90;;;5.01;nan;101401.41;5021262;28;20694;-66
2022/03/02 08:05:27;;;;;;;12.25;7.85;;;5.20;99.90;;;5.17;nan;101412.06;5004211;28;20222;-67
2022/03/02 08:07:54;;;;;;;13.50;8.57;;;5.30;99.90;;;5.11;nan;101414.88;4996322;28;20671;-66
2022/03/02 08:10:21;;;;;;;10.70;6.70;;;5.20;99.90;;;5.20;nan;101415.34;4975403;28;20666;-66
2022/03/02 08:12:48;;;;;;;26.70;8.05;;;5.30;99.90;;;5.16;nan;101400.84;5019058;28;20648;-67
2022/03/02 08:15:15;;;;;;;12.98;7.47;;;5.30;99.90;;;5.15;nan;101406.94;5006659;28;20223;-66
2022/03/02 08:17:43;;;;;;;10.45;7.25;;;5.30;99.90;;;5.21;nan;101413.63;4993094;28;20693;-66
2022/03/02 08:20:11;;;;;;;15.48;8.18;;;5.30;99.90;;;5.14;nan;101407.81;4977085;28;20589;-66
2022/03/02 08:22:48;;;;;;;11.98;8.10;;;5.20;99.90;;;5.16;nan;101412.94;5010018;28;20210;-67
2022/03/02 08:25:18;;;;;;;11.55;7.25;;;5.20;99.90;;;5.29;nan;101411.56;5003605;28;20233;-66
2022/03/02 08:27:45;;;;;;;10.27;7.32;;;5.40;99.90;;;5.35;nan;101413.94;5015499;28;20211;-66
2022/03/02 08:30:14;;;;;;;14.52;7.38;;;5.50;99.90;;;5.47;nan;101411.72;5010734;28;20203;-66
2022/03/02 08:32:46;;;;;;;12.00;7.15;;;5.50;99.90;;;5.53;nan;101417.56;5016504;28;20662;-66
2022/03/02 08:35:14;;;;;;;14.80;7.53;;;5.60;99.90;;;5.53;nan;101410.66;5025734;28;20242;-66
2022/03/02 08:37:42;;;;;;;14.13;6.85;;;5.50;99.90;;;5.37;nan;101412.13;4987065;28;20210;-66
2022/03/02 08:40:11;;;;;;;8.75;5.25;;;5.40;99.90;;;5.44;nan;101416.16;5006672;28;20207;-66
2022/03/02 08:42:39;;;;;;;11.48;6.78;;;5.50;99.90;;;5.39;nan;101410.31;5005007;28;20583;-66
2022/03/02 08:45:08;;;;;;;8.75;6.10;;;5.40;99.90;;;5.39;nan;101412.91;4984188;28;20226;-67
2022/03/02 08:47:35;;;;;;;15.30;7.60;;;5.40;99.90;;;5.41;nan;101418.88;4967847;28;20214;-66
2022/03/02 08:50:05;;;;;;;10.88;6.93;;;5.50;99.90;;;5.55;nan;101411.44;5007366;28;20210;-67
2022/03/02 08:52:34;;;;;;;14.07;7.85;;;5.60;99.90;;;5.43;nan;101417.91;4991281;28;20882;-66
2022/03/02 08:55:06;;;;;;;11.80;6.82;;;5.50;99.90;;;5.58;nan;101410.47;4991170;28;20257;-66
2022/03/02 08:57:34;;;;;;;11.60;7.05;;;5.60;99.90;;;5.70;nan;101416.00;4988871;28;20210;-67
2022/03/02 09:00:07;;;;;;;11.40;6.78;;;5.70;99.90;;;5.80;nan;101417.31;4977992;28;20211;-66
2022/03/02 09:02:36;;;;;;;14.10;8.38;;;5.80;99.90;;;5.76;nan;101410.59;5005907;28;20207;-66
2022/03/02 09:05:06;;;;;;;10.80;7.40;;;5.90;99.70;;;5.72;nan;101413.34;5002232;28;20234;-66
2022/03/02 09:07:33;;;;;;;18.95;6.90;;;5.90;99.40;;;5.88;nan;101415.28;4988603;28;20207;-67
2022/03/02 09:10:01;;;;;;;14.27;7.57;;;5.90;99.60;;;5.79;nan;101418.22;5008455;28;20210;-67
2022/03/02 09:12:28;;;;;;;14.10;7.80;;;6.00;99.50;;;5.92;nan;101419.44;4991998;28;20237;-66
2022/03/02 09:14:56;;;;;;;12.45;7.60;;;6.00;99.70;;;6.14;nan;101420.28;4977016;28;20226;-66
2022/03/02 09:17:25;;;;;;;12.18;7.07;;;6.20;99.50;;;6.30;nan;101417.03;5009495;28;20214;-66
2022/03/02 09:19:54;;;;;;;11.05;5.95;;;6.40;99.10;;;6.43;nan;101420.81;5019997;28;20212;-66
2022/03/02 09:22:23;;;;;;;16.55;8.00;;;6.60;98.50;;;6.63;nan;101420.78;5019180;28;20289;-66
2022/03/02 09:24:50;;;;;;;9.70;6.32;;;6.80;97.90;;;6.87;nan;101425.78;5013958;28;20238;-66
2022/03/02 09:27:19;;;;;;;12.18;7.72;;;7.10;96.80;;;7.08;nan;101423.97;4979249;28;20265;-66
2022/03/02 09:29:47;;;;;;;11.27;7.07;;;7.40;95.60;;;6.90;nan;101429.94;5002527;28;20202;-66
2022/03/02 09:32:15;;;;;;;14.00;5.60;;;7.30;95.10;;;7.30;nan;101421.25;5012937;28;20217;-67
2022/03/02 09:34:48;;;;;;;13.65;8.02;;;7.60;94.10;;;7.40;nan;101419.91;4994622;28;20640;-66
2022/03/02 09:37:17;;;;;;;13.93;7.70;;;7.80;92.80;;;7.24;nan;101424.94;5010942;28;20581;-66
2022/03/02 09:39:51;;;;;;;12.77;7.47;;;7.60;92.70;;;7.39;nan;101413.84;5015855;28;20268;-66
2022/03/02 09:42:31;;;;;;;12.75;7.35;;;7.60;92.80;;;7.28;nan;101412.69;4997617;28;20210;-67
2022/03/02 09:45:06;;;;;;;11.38;7.10;;;7.50;92.80;;;7.38;nan;101417.38;5017308;28;20226;-67
2022/03/02 09:47:46;;;;;;;16.35;8.63;;;7.50;92.60;;;7.28;nan;101417.88;4996733;28;20674;-66
2022/03/02 09:50:17;;;;;;;15.27;8.95;;;7.60;92.30;;;7.18;nan;101426.97;4996507;28;20210;-67
2022/03/02 09:52:48;;;;;;;12.43;7.85;;;7.70;92.20;;;7.59;nan;101415.53;4991440;28;20214;-66
2022/03/02 09:55:21;;;;;;;14.57;7.57;;;7.90;92.20;;;7.78;nan;101408.53;4996779;28;20234;-65
2022/03/02 09:57:56;;;;;;;12.43;6.93;;;8.00;92.20;;;7.89;nan;101419.25;5032178;28;20210;-66
2022/03/02 10:00:25;;;;;;;11.95;7.53;;;8.00;91.80;;;7.81;nan;101419.63;5023766;28;20209;-68
2022/03/02 10:03:01;;;;;;;15.52;7.68;;;8.00;92.10;;;7.70;nan;101410.66;5005380;28;20650;-69
2022/03/02 10:05:32;;;;;;;4.53;3.30;;;7.90;91.50;;;7.80;nan;101424.91;4995412;28;20222;-70
2022/03/02 10:08:02;;;;;;;13.00;8.23;;;7.90;91.70;;;7.39;nan;101424.22;4993336;28;20210;-67
2022/03/02 10:10:36;;;;;;;10.60;7.15;;;7.70;92.20;;;7.48;nan;101418.63;5006932;28;20218;-69
2022/03/02 10:13:10;;;;;;;16.17;8.87;;;7.60;92.50;;;7.42;nan;101412.88;5000427;28;20206;-68
2022/03/02 10:15:39;;;;;;;11.57;7.13;;;7.60;92.80;;;7.43;nan;101412.78;4995362;28;21053;-67
2022/03/02 10:18:11;;;;;;;11.77;7.28;;;7.50;92.80;;;7.30;nan;101409.09;5002964;28;20580;-67
2022/03/02 10:20:49;;;;;;;10.57;6.90;;;7.40;92.60;;;7.47;nan;101410.91;5009185;28;20276;-66
2022/03/02 10:23:36;;;;;;;13.23;7.82;;;7.50;92.60;;;7.49;nan;101404.75;4997040;28;20632;-66
2022/03/02 10:26:16;;;;;;;12.60;8.55;;;7.60;92.20;;;7.26;nan;101398.94;5014748;28;20253;-66
2022/03/02 10:28:47;;;;;;;13.82;7.95;;;7.40;92.10;;;7.24;nan;101403.34;4996505;28;20206;-65
2022/03/02 10:31:41;;;;;;;10.32;7.05;;;7.30;92.20;;;7.32;nan;101402.09;4991042;28;20200;-65
2022/03/02 10:34:23;;;;;;;12.00;6.32;;;7.30;92.30;;;7.43;nan;101397.22;4992171;28;20578;-65
2022/03/02 10:37:37;;;;;;;8.98;6.07;;;7.40;91.80;;;7.42;nan;101397.28;5004156;28;20728;-66
2022/03/02 10:40:15;;;;;;;8.48;5.97;;;7.50;90.10;;;7.50;nan;101390.81;5002102;28;20447;-66
2022/03/02 10:42:46;;;;;;;10.95;6.78;;;7.70;89.70;;;7.54;nan;101389.75;5011316;28;20206;-66
2022/03/02 10:45:20;;;;;;;10.73;6.55;;;7.70;90.30;;;7.65;nan;101384.91;4994629;28;20234;-67